createdAt,value
2023-01-27T00:00:01.552Z,3.75
2023-01-27T00:00:32.970Z,4.89
2023-01-27T00:01:04.465Z,4.67
2023-01-27T00:01:35.900Z,4.30
2023-01-27T00:02:07.298Z,4.81
2023-01-27T00:02:38.768Z,5.04
2023-01-27T00:03:10.211Z,4.51
2023-01-27T00:03:41.652Z,4.57
2023-01-27T00:04:13.090Z,3.96
2023-01-27T00:04:44.481Z,4.47
2023-01-27T00:05:15.875Z,4.76
2023-01-27T00:05:47.277Z,4.64
2023-01-27T00:06:18.830Z,4.73
2023-01-27T00:06:50.230Z,4.02
2023-01-27T00:07:21.633Z,4.04
2023-01-27T00:07:53.034Z,4.28
2023-01-27T00:08:24.438Z,4.83
2023-01-27T00:08:55.834Z,4.55
2023-01-27T00:09:27.244Z,4.21
2023-01-27T00:09:58.638Z,4.32
2023-01-27T00:10:30.057Z,4.51
2023-01-27T00:11:01.456Z,4.64
2023-01-27T00:11:32.883Z,4.25
2023-01-27T00:12:04.298Z,4.60
2023-01-27T00:12:35.693Z,3.89
2023-01-27T00:13:07.097Z,4.30
2023-01-27T00:13:38.498Z,4.27
2023-01-27T00:14:09.910Z,4.44
2023-01-27T00:14:41.307Z,4.19
2023-01-27T00:15:12.711Z,4.51
2023-01-27T00:15:44.106Z,4.33
2023-01-27T00:16:15.579Z,4.08
2023-01-27T00:16:47.058Z,4.21
2023-01-27T00:17:18.477Z,4.26
2023-01-27T00:17:49.876Z,4.36
2023-01-27T00:18:21.359Z,4.50
2023-01-27T00:18:52.791Z,4.39
2023-01-27T00:19:24.197Z,4.32
2023-01-27T00:19:55.591Z,4.37
2023-01-27T00:20:27.001Z,4.94
2023-01-27T00:20:58.394Z,4.08
2023-01-27T00:21:29.839Z,3.80
2023-01-27T00:22:01.262Z,3.82
2023-01-27T00:22:32.678Z,3.98
2023-01-27T00:23:04.090Z,4.51
2023-01-27T00:23:35.531Z,4.16
2023-01-27T00:24:07.001Z,4.71
2023-01-27T00:24:38.439Z,4.13
2023-01-27T00:25:09.867Z,4.09
2023-01-27T00:25:41.282Z,4.19
2023-01-27T00:26:12.699Z,4.10
2023-01-27T00:26:44.141Z,4.20
2023-01-27T00:27:15.548Z,4.30
2023-01-27T00:27:46.957Z,4.23
2023-01-27T00:28:18.382Z,4.06
2023-01-27T00:28:49.778Z,4.28
2023-01-27T00:29:21.226Z,4.36
2023-01-27T00:29:52.644Z,4.28
2023-01-27T00:30:24.086Z,4.07
2023-01-27T00:30:55.516Z,3.97
2023-01-27T00:31:26.991Z,4.15
2023-01-27T00:31:58.411Z,4.63
2023-01-27T00:32:29.835Z,4.16
2023-01-27T00:33:01.238Z,4.01
2023-01-27T00:33:32.653Z,4.16
2023-01-27T00:34:04.070Z,4.71
2023-01-27T00:34:35.602Z,4.52
2023-01-27T00:35:07.028Z,4.22
2023-01-27T00:35:38.460Z,3.46
2023-01-27T00:36:09.865Z,3.62
2023-01-27T00:36:41.283Z,4.39
2023-01-27T00:37:12.747Z,3.88
2023-01-27T00:37:44.149Z,3.82
2023-01-27T00:38:15.561Z,4.06
2023-01-27T00:38:46.953Z,4.85
2023-01-27T00:39:18.354Z,4.10
2023-01-27T00:39:49.791Z,3.67
2023-01-27T00:40:21.184Z,4.17
2023-01-27T00:40:52.581Z,4.16
2023-01-27T00:41:24.010Z,3.65
2023-01-27T00:41:55.398Z,4.57
2023-01-27T00:42:26.795Z,3.46
2023-01-27T00:42:58.218Z,3.65
2023-01-27T00:43:29.613Z,4.20
2023-01-27T00:44:01.005Z,4.03
2023-01-27T00:44:32.423Z,3.86
2023-01-27T00:45:03.861Z,4.17
2023-01-27T00:45:35.254Z,4.25
2023-01-27T00:46:06.716Z,3.02
2023-01-27T00:46:38.266Z,3.80
2023-01-27T00:47:09.743Z,4.56
2023-01-27T00:47:41.138Z,3.84
2023-01-27T00:48:12.547Z,4.24
2023-01-27T00:48:43.941Z,3.92
2023-01-27T00:49:15.359Z,4.26
2023-01-27T00:49:46.767Z,4.14
2023-01-27T00:50:18.163Z,3.80
2023-01-27T00:50:49.589Z,3.57
2023-01-27T00:51:20.996Z,3.89
2023-01-27T00:51:52.397Z,3.46
2023-01-27T00:52:23.800Z,3.43
2023-01-27T00:52:55.237Z,3.42
2023-01-27T00:53:26.666Z,3.53
2023-01-27T00:53:58.084Z,3.22
2023-01-27T00:54:29.484Z,3.12
2023-01-27T00:55:00.879Z,3.38
2023-01-27T00:55:32.322Z,3.71
2023-01-27T00:56:03.713Z,3.89
2023-01-27T00:56:35.117Z,3.77
2023-01-27T00:57:06.530Z,3.94
2023-01-27T00:57:37.957Z,3.89
2023-01-27T00:58:09.352Z,3.25
2023-01-27T00:58:40.745Z,3.33
2023-01-27T00:59:12.163Z,3.65
2023-01-27T00:59:43.575Z,3.66
2023-01-27T01:00:15.289Z,3.82
2023-01-27T01:00:46.951Z,4.08
2023-01-27T01:01:18.374Z,3.84
2023-01-27T01:01:49.806Z,3.57
2023-01-27T01:02:21.206Z,3.58
2023-01-27T01:02:52.696Z,3.46
2023-01-27T01:03:24.127Z,3.51
2023-01-27T01:03:55.520Z,3.41
2023-01-27T01:04:26.916Z,3.68
2023-01-27T01:04:58.316Z,3.35
2023-01-27T01:05:29.732Z,4.01
2023-01-27T01:06:01.201Z,3.75
2023-01-27T01:06:32.601Z,3.91
2023-01-27T01:07:04.015Z,3.80
2023-01-27T01:07:35.411Z,3.13
2023-01-27T01:08:06.819Z,3.69
2023-01-27T01:08:38.246Z,3.43
2023-01-27T01:09:09.668Z,4.12
2023-01-27T01:09:41.079Z,3.78
2023-01-27T01:10:12.781Z,3.50
2023-01-27T01:10:44.376Z,3.22
2023-01-27T01:11:15.813Z,3.22
2023-01-27T01:11:47.211Z,3.20
2023-01-27T01:12:18.621Z,3.06
2023-01-27T01:12:50.024Z,3.75
2023-01-27T01:13:21.445Z,3.82
2023-01-27T01:13:55.612Z,3.70
2023-01-27T01:14:27.624Z,3.79
2023-01-27T01:14:59.049Z,4.02
2023-01-27T01:15:30.450Z,3.77
2023-01-27T01:16:01.922Z,3.63
2023-01-27T01:16:33.355Z,4.15
2023-01-27T01:17:04.760Z,3.77
2023-01-27T01:17:36.150Z,3.66
2023-01-27T01:18:07.550Z,3.70
2023-01-27T01:18:38.982Z,2.99
2023-01-27T01:19:10.458Z,3.03
2023-01-27T01:19:41.874Z,3.11
2023-01-27T01:20:13.589Z,3.42
2023-01-27T01:20:45.220Z,3.61
2023-01-27T01:21:16.672Z,3.67
2023-01-27T01:21:48.086Z,3.43
2023-01-27T01:22:19.487Z,3.36
2023-01-27T01:22:50.919Z,4.06
2023-01-27T01:23:22.348Z,3.64
2023-01-27T01:23:53.827Z,3.20
2023-01-27T01:24:25.301Z,3.71
2023-01-27T01:24:56.719Z,3.68
2023-01-27T01:25:28.110Z,3.24
2023-01-27T01:25:59.514Z,3.12
2023-01-27T01:26:30.938Z,3.23
2023-01-27T01:27:02.327Z,3.56
2023-01-27T01:27:33.743Z,3.41
2023-01-27T01:28:05.169Z,3.64
2023-01-27T01:28:36.571Z,3.04
2023-01-27T01:29:07.980Z,3.40
2023-01-27T01:29:39.429Z,3.16
2023-01-27T01:30:11.028Z,3.48
2023-01-27T01:30:42.615Z,4.02
2023-01-27T01:31:14.087Z,2.69
2023-01-27T01:31:45.557Z,2.58
2023-01-27T01:32:17.006Z,3.31
2023-01-27T01:32:48.423Z,3.20
2023-01-27T01:33:19.842Z,3.37
2023-01-27T01:33:51.235Z,3.07
2023-01-27T01:34:22.664Z,3.50
2023-01-27T01:34:54.071Z,2.65
2023-01-27T01:35:25.513Z,3.46
2023-01-27T01:35:57.034Z,3.57
2023-01-27T01:36:28.459Z,3.08
2023-01-27T01:36:59.880Z,3.19
2023-01-27T01:37:31.274Z,3.21
2023-01-27T01:38:02.694Z,3.43
2023-01-27T01:38:34.120Z,3.73
2023-01-27T01:39:05.564Z,2.88
2023-01-27T01:39:36.978Z,3.37
2023-01-27T01:40:08.365Z,3.14
2023-01-27T01:40:39.755Z,3.52
2023-01-27T01:41:11.156Z,3.48
2023-01-27T01:41:42.557Z,3.06
2023-01-27T01:42:13.968Z,3.17
2023-01-27T01:42:45.366Z,2.78
2023-01-27T01:43:16.809Z,2.94
2023-01-27T01:43:48.226Z,3.20
2023-01-27T01:44:19.637Z,3.09
2023-01-27T01:44:51.040Z,3.13
2023-01-27T01:45:22.437Z,3.60
2023-01-27T01:45:53.844Z,3.05
2023-01-27T01:46:25.293Z,3.08
2023-01-27T01:46:56.857Z,3.01
2023-01-27T01:47:28.270Z,3.04
2023-01-27T01:47:59.684Z,3.38
2023-01-27T01:48:31.946Z,2.95
2023-01-27T01:49:03.452Z,3.41
2023-01-27T01:49:34.850Z,3.19
2023-01-27T01:50:06.255Z,2.93
2023-01-27T01:50:37.670Z,2.96
2023-01-27T01:51:09.078Z,2.43
2023-01-27T01:51:40.485Z,2.89
2023-01-27T01:52:11.889Z,2.75
2023-01-27T01:52:43.296Z,3.13
2023-01-27T01:53:14.708Z,2.91
2023-01-27T01:53:46.144Z,3.34
2023-01-27T01:54:17.570Z,3.67
2023-01-27T01:54:49.058Z,3.38
2023-01-27T01:55:20.457Z,2.89
2023-01-27T01:55:51.933Z,2.85
2023-01-27T01:56:23.344Z,3.13
2023-01-27T01:56:54.750Z,2.87
2023-01-27T01:57:26.145Z,3.01
2023-01-27T01:57:57.537Z,3.05
2023-01-27T01:58:28.946Z,3.39
2023-01-27T01:59:00.398Z,2.52
2023-01-27T01:59:31.871Z,2.80
2023-01-27T02:00:03.274Z,2.61
2023-01-27T02:00:34.776Z,3.26
2023-01-27T02:01:06.196Z,3.28
2023-01-27T02:01:37.616Z,2.83
2023-01-27T02:02:09.042Z,2.69
2023-01-27T02:02:40.483Z,2.94
2023-01-27T02:03:11.906Z,2.53
2023-01-27T02:03:43.318Z,3.09
2023-01-27T02:04:14.737Z,2.83
2023-01-27T02:04:46.150Z,2.79
2023-01-27T02:05:17.557Z,2.90
2023-01-27T02:05:48.987Z,3.27
2023-01-27T02:06:20.405Z,2.91
2023-01-27T02:06:51.833Z,2.90
2023-01-27T02:07:23.231Z,2.42
2023-01-27T02:07:54.654Z,2.91
2023-01-27T02:08:26.070Z,3.22
2023-01-27T02:08:57.490Z,2.68
2023-01-27T02:09:28.966Z,2.86
2023-01-27T02:10:00.368Z,2.91
2023-01-27T02:10:31.767Z,2.57
2023-01-27T02:11:03.156Z,2.74
2023-01-27T02:11:34.566Z,3.01
2023-01-27T02:12:05.991Z,3.15
2023-01-27T02:12:37.393Z,2.75
2023-01-27T02:13:08.781Z,2.52
2023-01-27T02:13:40.216Z,2.75
2023-01-27T02:14:11.618Z,2.93
2023-01-27T02:14:43.220Z,2.69
2023-01-27T02:15:14.899Z,2.32
2023-01-27T02:15:46.463Z,2.75
2023-01-27T02:16:17.944Z,2.61
2023-01-27T02:16:49.442Z,3.20
2023-01-27T02:17:20.961Z,2.99
2023-01-27T02:17:52.411Z,3.03
2023-01-27T02:18:23.811Z,2.95
2023-01-27T02:18:55.202Z,3.06
2023-01-27T02:19:26.623Z,2.60
2023-01-27T02:19:58.069Z,2.91
2023-01-27T02:20:29.488Z,2.98
2023-01-27T02:21:00.905Z,3.20
2023-01-27T02:21:32.303Z,2.75
2023-01-27T02:22:03.727Z,2.78
2023-01-27T02:22:35.195Z,2.57
2023-01-27T02:23:06.618Z,2.58
2023-01-27T02:23:38.014Z,2.68
2023-01-27T02:24:09.470Z,2.80
2023-01-27T02:24:40.898Z,3.04
2023-01-27T02:25:12.595Z,3.15
2023-01-27T02:25:44.158Z,2.41
2023-01-27T02:26:15.556Z,2.34
2023-01-27T02:26:47.054Z,2.88
2023-01-27T02:27:18.453Z,2.67
2023-01-27T02:27:49.859Z,2.67
2023-01-27T02:28:21.268Z,2.45
2023-01-27T02:28:52.687Z,2.74
2023-01-27T02:29:24.313Z,2.92
2023-01-27T02:29:55.730Z,2.63
2023-01-27T02:30:27.201Z,2.61
2023-01-27T02:30:58.707Z,2.32
2023-01-27T02:31:30.222Z,2.20
2023-01-27T02:32:01.724Z,2.99
2023-01-27T02:32:33.146Z,2.44
2023-01-27T02:33:04.540Z,2.71
2023-01-27T02:33:35.953Z,2.60
2023-01-27T02:34:07.347Z,3.12
2023-01-27T02:34:38.788Z,2.61
2023-01-27T02:35:10.394Z,2.94
2023-01-27T02:35:41.886Z,2.59
2023-01-27T02:36:13.310Z,2.88
2023-01-27T02:36:44.736Z,2.87
2023-01-27T02:37:16.127Z,2.59
2023-01-27T02:37:47.542Z,2.09
2023-01-27T02:38:18.970Z,2.55
2023-01-27T02:38:50.374Z,2.70
2023-01-27T02:39:21.782Z,2.28
2023-01-27T02:39:53.205Z,2.66
2023-01-27T02:40:24.646Z,2.72
2023-01-27T02:40:56.085Z,2.43
2023-01-27T02:41:27.509Z,2.34
2023-01-27T02:41:58.906Z,2.70
2023-01-27T02:42:30.429Z,2.84
2023-01-27T02:43:01.855Z,2.52
2023-01-27T02:43:33.260Z,2.51
2023-01-27T02:44:04.664Z,2.49
2023-01-27T02:44:36.131Z,2.32
2023-01-27T02:45:07.531Z,2.54
2023-01-27T02:45:38.924Z,2.38
2023-01-27T02:46:10.368Z,2.77
2023-01-27T02:46:41.806Z,2.55
2023-01-27T02:47:13.212Z,2.18
2023-01-27T02:47:44.609Z,2.70
2023-01-27T02:48:16.056Z,2.24
2023-01-27T02:48:47.473Z,2.38
2023-01-27T02:49:18.884Z,2.77
2023-01-27T02:49:50.298Z,3.17
2023-01-27T02:50:21.722Z,2.60
2023-01-27T02:50:53.147Z,2.79
2023-01-27T02:51:24.595Z,3.01
2023-01-27T02:51:56.010Z,2.82
2023-01-27T02:52:27.484Z,2.96
2023-01-27T02:52:58.904Z,2.23
2023-01-27T02:53:30.302Z,2.30
2023-01-27T02:54:01.708Z,2.33
2023-01-27T02:54:33.102Z,2.40
2023-01-27T02:55:04.509Z,2.21
2023-01-27T02:55:35.914Z,2.49
2023-01-27T02:56:07.330Z,2.15
2023-01-27T02:56:38.763Z,2.67
2023-01-27T02:57:10.181Z,2.59
2023-01-27T02:57:41.593Z,2.29
2023-01-27T02:58:12.983Z,2.48
2023-01-27T02:58:44.402Z,2.22
2023-01-27T02:59:15.801Z,2.19
2023-01-27T02:59:47.200Z,2.09
2023-01-27T03:00:18.598Z,2.23
2023-01-27T03:00:50.019Z,2.16
2023-01-27T03:01:21.549Z,2.18
2023-01-27T03:01:53.063Z,2.16
2023-01-27T03:02:24.479Z,2.05
2023-01-27T03:02:55.877Z,2.05
2023-01-27T03:03:27.281Z,2.11
2023-01-27T03:03:58.805Z,2.68
2023-01-27T03:04:30.207Z,2.32
2023-01-27T03:05:01.610Z,2.48
2023-01-27T03:05:33.028Z,2.34
2023-01-27T03:06:04.416Z,2.21
2023-01-27T03:06:35.833Z,2.66
2023-01-27T03:07:07.289Z,2.16
2023-01-27T03:07:38.706Z,2.41
2023-01-27T03:08:10.097Z,2.46
2023-01-27T03:08:41.493Z,2.43
2023-01-27T03:09:12.884Z,2.44
2023-01-27T03:09:44.338Z,2.69
2023-01-27T03:10:15.754Z,2.49
2023-01-27T03:10:47.155Z,2.34
2023-01-27T03:11:18.615Z,2.74
2023-01-27T03:11:50.021Z,1.90
2023-01-27T03:12:21.496Z,2.94
2023-01-27T03:12:52.916Z,2.73
2023-01-27T03:13:24.335Z,2.35
2023-01-27T03:13:55.739Z,2.44
2023-01-27T03:14:27.128Z,2.51
2023-01-27T03:14:58.521Z,2.58
2023-01-27T03:15:29.952Z,2.17
2023-01-27T03:16:01.424Z,2.09
2023-01-27T03:16:32.843Z,2.64
2023-01-27T03:17:04.351Z,2.98
2023-01-27T03:17:35.778Z,2.09
2023-01-27T03:18:07.175Z,2.22
2023-01-27T03:18:38.573Z,2.38
2023-01-27T03:19:09.967Z,2.14
2023-01-27T03:19:41.388Z,2.49
2023-01-27T03:20:12.813Z,2.47
2023-01-27T03:20:44.218Z,2.54
2023-01-27T03:21:15.629Z,2.07
2023-01-27T03:21:47.022Z,2.67
2023-01-27T03:22:18.438Z,2.35
2023-01-27T03:22:49.879Z,2.19
2023-01-27T03:23:21.273Z,2.24
2023-01-27T03:23:52.691Z,2.31
2023-01-27T03:24:24.159Z,2.29
2023-01-27T03:24:55.633Z,2.46
2023-01-27T03:25:27.030Z,2.47
2023-01-27T03:25:58.449Z,2.12
2023-01-27T03:26:29.844Z,2.17
2023-01-27T03:27:01.257Z,2.13
2023-01-27T03:27:32.877Z,1.94
2023-01-27T03:28:04.307Z,2.20
2023-01-27T03:28:35.722Z,2.32
2023-01-27T03:29:07.141Z,2.39
2023-01-27T03:29:38.557Z,2.19
2023-01-27T03:30:09.971Z,1.86
2023-01-27T03:30:41.452Z,1.51
2023-01-27T03:31:13.008Z,1.93
2023-01-27T03:31:44.577Z,1.72
2023-01-27T03:32:16.064Z,2.44
2023-01-27T03:32:47.472Z,1.95
2023-01-27T03:33:18.915Z,1.98
2023-01-27T03:33:50.325Z,2.08
2023-01-27T03:34:21.726Z,1.95
2023-01-27T03:34:53.130Z,2.09
2023-01-27T03:35:24.541Z,2.22
2023-01-27T03:35:55.949Z,2.20
2023-01-27T03:36:27.346Z,2.14
2023-01-27T03:36:58.761Z,2.08
2023-01-27T03:37:30.170Z,2.85
2023-01-27T03:38:01.573Z,2.71
2023-01-27T03:38:32.981Z,2.09
2023-01-27T03:39:04.403Z,2.03
2023-01-27T03:39:35.818Z,1.85
2023-01-27T03:40:07.212Z,2.15
2023-01-27T03:40:38.625Z,2.40
2023-01-27T03:41:10.045Z,2.18
2023-01-27T03:41:41.456Z,2.16
2023-01-27T03:42:12.886Z,2.43
2023-01-27T03:42:44.305Z,2.33
2023-01-27T03:43:15.698Z,1.89
2023-01-27T03:43:47.118Z,2.12
2023-01-27T03:44:18.544Z,2.02
2023-01-27T03:44:49.939Z,1.99
2023-01-27T03:45:21.345Z,1.92
2023-01-27T03:45:52.768Z,2.12
2023-01-27T03:46:24.246Z,2.38
2023-01-27T03:46:55.705Z,2.19
2023-01-27T03:47:27.127Z,1.78
2023-01-27T03:47:58.545Z,1.98
2023-01-27T03:48:29.948Z,1.89
2023-01-27T03:49:01.346Z,1.70
2023-01-27T03:49:32.766Z,1.99
2023-01-27T03:50:04.233Z,2.06
2023-01-27T03:50:35.659Z,2.19
2023-01-27T03:51:07.099Z,2.06
2023-01-27T03:51:38.510Z,2.10
2023-01-27T03:52:09.938Z,2.45
2023-01-27T03:52:41.344Z,1.78
2023-01-27T03:53:12.757Z,2.21
2023-01-27T03:53:44.169Z,2.35
2023-01-27T03:54:15.634Z,2.17
2023-01-27T03:54:47.072Z,1.97
2023-01-27T03:55:18.491Z,2.10
2023-01-27T03:55:49.900Z,2.29
2023-01-27T03:56:21.323Z,2.33
2023-01-27T03:56:52.742Z,2.07
2023-01-27T03:57:24.143Z,2.31
2023-01-27T03:57:55.538Z,1.98
2023-01-27T03:58:26.933Z,2.18
2023-01-27T03:58:58.348Z,1.85
2023-01-27T03:59:29.772Z,2.00
2023-01-27T04:00:01.182Z,1.64
2023-01-27T04:00:32.836Z,2.11
2023-01-27T04:01:04.237Z,1.88
2023-01-27T04:01:35.654Z,1.84
2023-01-27T04:02:07.061Z,2.20
2023-01-27T04:02:38.487Z,1.77
2023-01-27T04:03:09.916Z,1.78
2023-01-27T04:03:41.310Z,1.84
2023-01-27T04:04:12.729Z,2.24
2023-01-27T04:04:44.155Z,1.92
2023-01-27T04:05:15.897Z,2.26
2023-01-27T04:05:47.499Z,2.26
2023-01-27T04:06:18.920Z,1.94
2023-01-27T04:06:50.320Z,2.25
2023-01-27T04:07:21.709Z,2.00
2023-01-27T04:07:53.109Z,2.17
2023-01-27T04:08:24.502Z,1.99
2023-01-27T04:08:55.905Z,2.25
2023-01-27T04:09:27.320Z,1.75
2023-01-27T04:09:58.737Z,1.60
2023-01-27T04:10:30.132Z,1.63
2023-01-27T04:11:01.589Z,1.46
2023-01-27T04:11:32.996Z,2.04
2023-01-27T04:12:04.450Z,2.14
2023-01-27T04:12:35.925Z,2.14
2023-01-27T04:13:07.339Z,2.50
2023-01-27T04:13:38.743Z,1.96
2023-01-27T04:14:10.137Z,1.89
2023-01-27T04:14:41.549Z,2.04
2023-01-27T04:15:13.252Z,1.88
2023-01-27T04:15:44.844Z,1.71
2023-01-27T04:16:16.371Z,1.88
2023-01-27T04:16:47.769Z,1.92
2023-01-27T04:17:19.209Z,2.33
2023-01-27T04:17:50.609Z,1.48
2023-01-27T04:18:22.028Z,1.90
2023-01-27T04:18:53.440Z,2.00
2023-01-27T04:19:24.854Z,1.98
2023-01-27T04:19:56.273Z,1.75
2023-01-27T04:20:27.697Z,2.27
2023-01-27T04:20:59.111Z,2.53
2023-01-27T04:21:30.563Z,1.88
2023-01-27T04:22:02.205Z,2.14
2023-01-27T04:22:33.602Z,2.01
2023-01-27T04:23:05.045Z,1.91
2023-01-27T04:23:36.438Z,1.85
2023-01-27T04:24:07.889Z,2.09
2023-01-27T04:24:39.352Z,1.73
2023-01-27T04:25:12.359Z,2.07
2023-01-27T04:25:44.725Z,1.88
2023-01-27T04:26:16.133Z,1.51
2023-01-27T04:26:47.565Z,1.58
2023-01-27T04:27:18.980Z,1.72
2023-01-27T04:27:50.375Z,1.63
2023-01-27T04:28:37.339Z,1.81
2023-01-27T04:29:13.142Z,2.04
2023-01-27T04:29:44.564Z,1.83
2023-01-27T04:30:15.991Z,2.05
2023-01-27T04:30:47.458Z,1.90
2023-01-27T04:31:18.918Z,1.79
2023-01-27T04:31:50.466Z,1.80
2023-01-27T04:32:21.918Z,1.86
2023-01-27T04:32:53.325Z,1.84
2023-01-27T04:33:24.836Z,1.92
2023-01-27T04:33:56.270Z,1.65
2023-01-27T04:34:27.669Z,2.12
2023-01-27T04:34:59.091Z,1.88
2023-01-27T04:35:38.421Z,2.01
2023-01-27T04:36:10.186Z,1.91
2023-01-27T04:36:41.763Z,1.95
2023-01-27T04:37:13.162Z,1.45
2023-01-27T04:37:44.631Z,1.92
2023-01-27T04:38:16.189Z,1.80
2023-01-27T04:38:47.603Z,1.85
2023-01-27T04:39:19.022Z,1.63
2023-01-27T04:39:50.425Z,1.66
2023-01-27T04:40:21.829Z,2.03
2023-01-27T04:40:53.222Z,2.02
2023-01-27T04:41:24.620Z,1.86
2023-01-27T04:41:56.015Z,2.00
2023-01-27T04:42:27.466Z,1.39
2023-01-27T04:42:59.106Z,1.66
2023-01-27T04:43:30.497Z,1.71
2023-01-27T04:44:01.910Z,2.02
2023-01-27T04:44:33.330Z,1.83
2023-01-27T04:45:04.720Z,1.80
2023-01-27T04:45:36.135Z,1.81
2023-01-27T04:46:07.615Z,1.36
2023-01-27T04:46:39.095Z,2.09
2023-01-27T04:47:10.494Z,1.72
2023-01-27T04:47:41.926Z,1.56
2023-01-27T04:48:13.313Z,1.83
2023-01-27T04:48:44.732Z,1.80
2023-01-27T04:49:16.144Z,1.75
2023-01-27T04:49:47.546Z,2.04
2023-01-27T04:50:18.980Z,1.87
2023-01-27T04:50:50.378Z,1.64
2023-01-27T04:51:21.808Z,1.60
2023-01-27T04:51:53.210Z,1.43
2023-01-27T04:52:24.605Z,1.70
2023-01-27T04:52:56.025Z,1.52
2023-01-27T04:53:27.423Z,1.21
2023-01-27T04:53:58.851Z,1.85
2023-01-27T04:54:30.546Z,1.79
2023-01-27T04:55:01.956Z,1.38
2023-01-27T04:55:33.370Z,1.60
2023-01-27T04:56:04.780Z,1.48
2023-01-27T04:56:36.192Z,1.69
2023-01-27T04:57:07.578Z,1.98
2023-01-27T04:57:39.021Z,1.93
2023-01-27T04:58:10.457Z,1.71
2023-01-27T04:58:41.874Z,1.66
2023-01-27T04:59:13.318Z,1.96
2023-01-27T04:59:44.745Z,1.33
2023-01-27T05:00:17.458Z,1.57
2023-01-27T05:00:48.914Z,1.70
2023-01-27T05:01:20.324Z,1.86
2023-01-27T05:01:51.741Z,1.82
2023-01-27T05:02:23.159Z,1.85
2023-01-27T05:02:54.613Z,1.84
2023-01-27T05:03:26.108Z,1.50
2023-01-27T05:03:57.503Z,1.81
2023-01-27T05:04:28.921Z,1.55
2023-01-27T05:05:00.312Z,1.90
2023-01-27T05:05:31.719Z,2.12
2023-01-27T05:06:03.136Z,1.77
2023-01-27T05:06:34.527Z,1.68
2023-01-27T05:07:05.939Z,1.70
2023-01-27T05:07:37.347Z,1.77
2023-01-27T05:08:08.778Z,1.81
2023-01-27T05:08:40.212Z,1.55
2023-01-27T05:09:11.613Z,1.31
2023-01-27T05:09:43.006Z,1.86
2023-01-27T05:10:14.408Z,1.80
2023-01-27T05:10:45.890Z,1.31
2023-01-27T05:11:17.293Z,1.46
2023-01-27T05:11:48.720Z,1.79
2023-01-27T05:12:20.130Z,1.66
2023-01-27T05:12:51.567Z,1.72
2023-01-27T05:13:23.198Z,2.19
2023-01-27T05:13:54.604Z,1.80
2023-01-27T05:14:26.080Z,1.90
2023-01-27T05:14:57.517Z,1.87
2023-01-27T05:15:28.953Z,1.60
2023-01-27T05:16:00.471Z,1.56
2023-01-27T05:16:32.066Z,1.54
2023-01-27T05:17:03.562Z,1.52
2023-01-27T05:17:35.046Z,1.96
2023-01-27T05:18:06.508Z,1.72
2023-01-27T05:18:37.908Z,1.39
2023-01-27T05:19:09.305Z,1.76
2023-01-27T05:19:40.711Z,1.59
2023-01-27T05:20:12.310Z,1.65
2023-01-27T05:20:43.778Z,1.88
2023-01-27T05:21:15.169Z,1.82
2023-01-27T05:21:46.560Z,1.84
2023-01-27T05:22:17.965Z,1.47
2023-01-27T05:22:49.417Z,1.57
2023-01-27T05:23:20.833Z,1.49
2023-01-27T05:23:52.321Z,2.10
2023-01-27T05:24:23.832Z,1.67
2023-01-27T05:24:55.285Z,1.71
2023-01-27T05:25:26.867Z,1.57
2023-01-27T05:25:58.726Z,1.87
2023-01-27T05:26:30.267Z,1.70
2023-01-27T05:27:01.679Z,1.98
2023-01-27T05:27:33.097Z,1.65
2023-01-27T05:28:04.558Z,1.46
2023-01-27T05:28:35.957Z,1.44
2023-01-27T05:29:07.366Z,1.60
2023-01-27T05:29:38.810Z,1.70
2023-01-27T05:30:10.216Z,1.82
2023-01-27T05:30:41.652Z,1.29
2023-01-27T05:31:13.119Z,1.35
2023-01-27T05:31:44.763Z,2.09
2023-01-27T05:32:16.213Z,1.64
2023-01-27T05:32:47.802Z,1.43
2023-01-27T05:33:19.243Z,1.25
2023-01-27T05:33:50.669Z,1.66
2023-01-27T05:34:22.081Z,1.32
2023-01-27T05:34:53.483Z,1.42
2023-01-27T05:35:24.882Z,1.78
2023-01-27T05:35:56.302Z,1.87
2023-01-27T05:36:27.702Z,1.75
2023-01-27T05:36:59.113Z,2.03
2023-01-27T05:37:30.521Z,1.66
2023-01-27T05:38:01.955Z,1.56
2023-01-27T05:38:33.423Z,1.48
2023-01-27T05:39:06.130Z,1.44
2023-01-27T05:39:39.167Z,1.62
2023-01-27T05:40:10.606Z,1.44
2023-01-27T05:40:42.016Z,1.83
2023-01-27T05:41:13.429Z,1.87
2023-01-27T05:41:44.833Z,1.67
2023-01-27T05:42:16.230Z,1.89
2023-01-27T05:42:47.666Z,1.62
2023-01-27T05:43:19.102Z,1.86
2023-01-27T05:43:50.521Z,1.78
2023-01-27T05:44:21.918Z,1.64
2023-01-27T05:44:53.327Z,1.45
2023-01-27T05:45:24.763Z,1.31
2023-01-27T05:45:56.164Z,1.78
2023-01-27T05:46:27.626Z,1.48
2023-01-27T05:46:59.057Z,1.48
2023-01-27T05:47:30.478Z,1.78
2023-01-27T05:48:01.909Z,1.51
2023-01-27T05:48:33.306Z,1.32
2023-01-27T05:49:04.762Z,1.76
2023-01-27T05:49:36.170Z,1.70
2023-01-27T05:50:07.567Z,1.27
2023-01-27T05:50:38.964Z,1.61
2023-01-27T05:51:11.817Z,1.75
2023-01-27T05:51:44.914Z,2.03
2023-01-27T05:52:16.309Z,1.49
2023-01-27T05:52:47.720Z,1.58
2023-01-27T05:53:19.125Z,1.74
2023-01-27T05:53:50.521Z,1.56
2023-01-27T05:54:21.933Z,1.78
2023-01-27T05:54:53.329Z,1.75
2023-01-27T05:55:24.716Z,1.38
2023-01-27T05:55:56.117Z,1.56
2023-01-27T05:56:27.586Z,1.68
2023-01-27T05:56:59.030Z,1.78
2023-01-27T05:57:30.431Z,1.51
2023-01-27T05:58:01.830Z,1.67
2023-01-27T05:58:33.293Z,1.65
2023-01-27T05:59:04.734Z,1.93
2023-01-27T05:59:36.153Z,1.54
2023-01-27T06:00:07.545Z,1.44
2023-01-27T06:00:38.943Z,1.64
2023-01-27T06:01:10.392Z,1.58
2023-01-27T06:01:41.826Z,1.51
2023-01-27T06:02:13.295Z,1.93
2023-01-27T06:02:44.850Z,1.67
2023-01-27T06:03:16.356Z,1.78
2023-01-27T06:03:47.814Z,1.51
2023-01-27T06:04:19.209Z,1.55
2023-01-27T06:04:50.598Z,1.31
2023-01-27T06:05:22.056Z,1.74
2023-01-27T06:05:53.455Z,1.98
2023-01-27T06:06:24.927Z,1.98
2023-01-27T06:06:56.330Z,1.82
2023-01-27T06:07:27.740Z,1.37
2023-01-27T06:07:59.147Z,1.30
2023-01-27T06:08:30.546Z,1.34
2023-01-27T06:09:02.022Z,1.46
2023-01-27T06:09:33.418Z,1.31
2023-01-27T06:10:04.877Z,1.41
2023-01-27T06:10:36.290Z,1.63
2023-01-27T06:11:07.733Z,1.84
2023-01-27T06:11:39.156Z,1.85
2023-01-27T06:12:10.548Z,1.61
2023-01-27T06:12:41.968Z,1.61
2023-01-27T06:13:13.586Z,1.59
2023-01-27T06:13:45.001Z,1.63
2023-01-27T06:14:16.473Z,1.77
2023-01-27T06:14:47.866Z,1.94
2023-01-27T06:15:19.265Z,1.52
2023-01-27T06:15:50.687Z,1.44
2023-01-27T06:16:22.126Z,1.88
2023-01-27T06:16:53.576Z,1.35
2023-01-27T06:17:24.999Z,1.46
2023-01-27T06:17:56.409Z,1.54
2023-01-27T06:18:27.809Z,1.58
2023-01-27T06:18:59.216Z,1.80
2023-01-27T06:19:30.610Z,1.74
2023-01-27T06:20:02.041Z,1.74
2023-01-27T06:20:33.471Z,1.77
2023-01-27T06:21:04.871Z,1.29
2023-01-27T06:21:36.287Z,1.56
2023-01-27T06:22:07.681Z,1.57
2023-01-27T06:22:39.081Z,1.29
2023-01-27T06:23:10.504Z,1.54
2023-01-27T06:23:41.924Z,1.35
2023-01-27T06:24:13.842Z,1.54
2023-01-27T06:24:45.294Z,1.89
2023-01-27T06:25:16.985Z,1.50
2023-01-27T06:25:48.484Z,1.28
2023-01-27T06:26:19.882Z,1.45
2023-01-27T06:26:51.311Z,1.39
2023-01-27T06:27:22.730Z,1.45
2023-01-27T06:27:54.124Z,1.20
2023-01-27T06:28:29.873Z,1.49
2023-01-27T06:29:01.517Z,2.13
2023-01-27T06:29:32.950Z,1.88
2023-01-27T06:30:04.350Z,1.41
2023-01-27T06:30:35.772Z,1.61
2023-01-27T06:31:07.275Z,1.52
2023-01-27T06:31:38.787Z,1.76
2023-01-27T06:32:10.286Z,1.30
2023-01-27T06:32:41.726Z,1.73
2023-01-27T06:33:14.783Z,1.29
2023-01-27T06:33:46.443Z,1.50
2023-01-27T06:34:17.834Z,1.62
2023-01-27T06:34:49.236Z,1.61
2023-01-27T06:35:20.713Z,1.23
2023-01-27T06:35:52.111Z,1.45
2023-01-27T06:36:23.570Z,1.41
2023-01-27T06:36:54.989Z,1.52
2023-01-27T06:37:26.412Z,1.37
2023-01-27T06:37:57.833Z,1.44
2023-01-27T06:38:29.237Z,1.57
2023-01-27T06:39:00.638Z,1.11
2023-01-27T06:39:32.055Z,1.37
2023-01-27T06:40:03.470Z,1.84
2023-01-27T06:40:34.879Z,1.87
2023-01-27T06:41:06.405Z,1.68
2023-01-27T06:41:37.928Z,1.69
2023-01-27T06:42:09.345Z,1.60
2023-01-27T06:42:40.759Z,1.67
2023-01-27T06:43:12.162Z,1.72
2023-01-27T06:43:43.563Z,1.53
2023-01-27T06:44:14.958Z,1.48
2023-01-27T06:44:46.350Z,1.82
2023-01-27T06:45:17.759Z,1.59
2023-01-27T06:45:49.169Z,1.38
2023-01-27T06:46:20.601Z,1.60
2023-01-27T06:46:52.071Z,1.48
2023-01-27T06:47:23.474Z,1.46
2023-01-27T06:47:54.891Z,1.47
2023-01-27T06:48:26.290Z,1.62
2023-01-27T06:48:57.713Z,1.41
2023-01-27T06:49:29.133Z,1.24
2023-01-27T06:50:00.553Z,1.52
2023-01-27T06:50:31.959Z,1.16
2023-01-27T06:51:03.362Z,1.59
2023-01-27T06:51:34.749Z,1.28
2023-01-27T06:52:06.150Z,1.93
2023-01-27T06:52:37.609Z,1.91
2023-01-27T06:53:09.026Z,1.75
2023-01-27T06:53:40.437Z,1.27
2023-01-27T06:54:11.838Z,1.62
2023-01-27T06:54:43.249Z,1.39
2023-01-27T06:55:14.670Z,1.27
2023-01-27T06:55:46.078Z,1.19
2023-01-27T06:56:17.636Z,1.30
2023-01-27T06:56:49.048Z,1.45
2023-01-27T06:57:20.438Z,1.40
2023-01-27T06:57:51.873Z,1.19
2023-01-27T06:58:23.280Z,1.27
2023-01-27T06:58:54.677Z,1.33